sensor_id;sensor_type;location;lat;lon;timestamp;temperature;humidity
28087;DHT22;15392;48.912;8.380;2023-06-19T00:00:18;28.40;30.20
28087;DHT22;15392;48.912;8.380;2023-06-19T00:02:44;28.30;30.00
28087;DHT22;15392;48.912;8.380;2023-06-19T00:05:10;28.30;30.10
28087;DHT22;15392;48.912;8.380;2023-06-19T00:07:37;28.30;30.10
28087;DHT22;15392;48.912;8.380;2023-06-19T00:10:04;28.30;30.10
28087;DHT22;15392;48.912;8.380;2023-06-19T00:12:30;28.30;30.20
28087;DHT22;15392;48.912;8.380;2023-06-19T00:14:56;28.20;30.00
28087;DHT22;15392;48.912;8.380;2023-06-19T00:17:22;28.20;30.30
28087;DHT22;15392;48.912;8.380;2023-06-19T00:19:52;28.20;30.50
28087;DHT22;15392;48.912;8.380;2023-06-19T00:22:18;28.10;30.80
28087;DHT22;15392;48.912;8.380;2023-06-19T00:24:44;28.10;30.70
28087;DHT22;15392;48.912;8.380;2023-06-19T00:27:10;28.10;30.50
28087;DHT22;15392;48.912;8.380;2023-06-19T00:29:35;28.10;30.70
28087;DHT22;15392;48.912;8.380;2023-06-19T00:32:01;28.00;31.50
28087;DHT22;15392;48.912;8.380;2023-06-19T00:34:29;28.00;31.50
28087;DHT22;15392;48.912;8.380;2023-06-19T00:36:56;28.00;31.50
28087;DHT22;15392;48.912;8.380;2023-06-19T00:39:24;28.00;31.30
28087;DHT22;15392;48.912;8.380;2023-06-19T00:41:54;28.00;31.80
28087;DHT22;15392;48.912;8.380;2023-06-19T00:44:21;27.90;32.50
28087;DHT22;15392;48.912;8.380;2023-06-19T00:46:50;27.90;32.20
28087;DHT22;15392;48.912;8.380;2023-06-19T00:49:17;27.90;32.90
28087;DHT22;15392;48.912;8.380;2023-06-19T00:51:43;27.90;31.90
28087;DHT22;15392;48.912;8.380;2023-06-19T00:54:09;27.90;32.00
28087;DHT22;15392;48.912;8.380;2023-06-19T00:56:37;27.80;32.70
28087;DHT22;15392;48.912;8.380;2023-06-19T00:59:06;27.80;32.90
28087;DHT22;15392;48.912;8.380;2023-06-19T01:01:34;27.80;32.70
28087;DHT22;15392;48.912;8.380;2023-06-19T01:04:00;27.70;32.50
28087;DHT22;15392;48.912;8.380;2023-06-19T01:06:56;27.70;33.20
28087;DHT22;15392;48.912;8.380;2023-06-19T01:09:31;27.70;34.90
28087;DHT22;15392;48.912;8.380;2023-06-19T01:12:10;27.60;33.60
28087;DHT22;15392;48.912;8.380;2023-06-19T01:14:50;27.50;34.80
28087;DHT22;15392;48.912;8.380;2023-06-19T01:17:20;27.50;36.30
28087;DHT22;15392;48.912;8.380;2023-06-19T01:19:47;27.30;34.20
28087;DHT22;15392;48.912;8.380;2023-06-19T01:22:23;27.30;34.70
28087;DHT22;15392;48.912;8.380;2023-06-19T01:24:55;27.20;36.40
28087;DHT22;15392;48.912;8.380;2023-06-19T01:27:25;27.00;34.50
28087;DHT22;15392;48.912;8.380;2023-06-19T01:29:56;27.00;35.20
28087;DHT22;15392;48.912;8.380;2023-06-19T01:32:40;26.80;35.40
28087;DHT22;15392;48.912;8.380;2023-06-19T01:35:08;26.80;38.10
28087;DHT22;15392;48.912;8.380;2023-06-19T01:37:37;26.70;35.40
28087;DHT22;15392;48.912;8.380;2023-06-19T01:40:06;26.50;35.00
28087;DHT22;15392;48.912;8.380;2023-06-19T01:42:37;26.50;35.30
28087;DHT22;15392;48.912;8.380;2023-06-19T01:45:04;26.40;35.20
28087;DHT22;15392;48.912;8.380;2023-06-19T01:47:31;26.30;35.10
28087;DHT22;15392;48.912;8.380;2023-06-19T01:49:57;26.30;34.90
28087;DHT22;15392;48.912;8.380;2023-06-19T01:52:24;26.30;35.00
28087;DHT22;15392;48.912;8.380;2023-06-19T01:54:50;26.20;35.20
28087;DHT22;15392;48.912;8.380;2023-06-19T01:57:16;26.20;35.00
28087;DHT22;15392;48.912;8.380;2023-06-19T01:59:42;26.20;35.30
28087;DHT22;15392;48.912;8.380;2023-06-19T02:02:08;26.10;35.40
28087;DHT22;15392;48.912;8.380;2023-06-19T02:04:34;26.10;35.60
28087;DHT22;15392;48.912;8.380;2023-06-19T02:06:59;26.10;35.50
28087;DHT22;15392;48.912;8.380;2023-06-19T02:09:25;26.10;35.50
28087;DHT22;15392;48.912;8.380;2023-06-19T02:11:51;26.00;35.60
28087;DHT22;15392;48.912;8.380;2023-06-19T02:14:17;26.00;35.40
28087;DHT22;15392;48.912;8.380;2023-06-19T02:16:43;26.00;35.30
28087;DHT22;15392;48.912;8.380;2023-06-19T02:19:12;26.00;35.20
28087;DHT22;15392;48.912;8.380;2023-06-19T02:21:38;25.90;35.70
28087;DHT22;15392;48.912;8.380;2023-06-19T02:24:04;25.90;35.30
28087;DHT22;15392;48.912;8.380;2023-06-19T02:26:31;25.90;35.30
28087;DHT22;15392;48.912;8.380;2023-06-19T02:28:57;25.90;35.30
28087;DHT22;15392;48.912;8.380;2023-06-19T02:31:23;25.90;36.00
28087;DHT22;15392;48.912;8.380;2023-06-19T02:33:49;25.90;35.90
28087;DHT22;15392;48.912;8.380;2023-06-19T02:36:15;25.90;35.20
28087;DHT22;15392;48.912;8.380;2023-06-19T02:38:48;25.90;35.10
28087;DHT22;15392;48.912;8.380;2023-06-19T02:41:15;25.90;36.10
28087;DHT22;15392;48.912;8.380;2023-06-19T02:43:42;25.90;35.00
28087;DHT22;15392;48.912;8.380;2023-06-19T02:46:08;25.90;34.90
28087;DHT22;15392;48.912;8.380;2023-06-19T02:48:34;25.90;34.70
28087;DHT22;15392;48.912;8.380;2023-06-19T02:51:00;25.90;35.20
28087;DHT22;15392;48.912;8.380;2023-06-19T02:53:26;25.90;35.10
28087;DHT22;15392;48.912;8.380;2023-06-19T02:55:51;25.90;35.20
28087;DHT22;15392;48.912;8.380;2023-06-19T02:58:17;25.90;34.90
28087;DHT22;15392;48.912;8.380;2023-06-19T03:00:43;26.00;35.00
28087;DHT22;15392;48.912;8.380;2023-06-19T03:03:09;26.00;34.60
28087;DHT22;15392;48.912;8.380;2023-06-19T03:05:35;26.00;34.60
28087;DHT22;15392;48.912;8.380;2023-06-19T03:08:01;26.00;34.50
28087;DHT22;15392;48.912;8.380;2023-06-19T03:10:27;26.00;34.20
28087;DHT22;15392;48.912;8.380;2023-06-19T03:12:53;26.00;34.50
28087;DHT22;15392;48.912;8.380;2023-06-19T03:15:18;26.10;34.60
28087;DHT22;15392;48.912;8.380;2023-06-19T03:17:44;26.10;34.60
28087;DHT22;15392;48.912;8.380;2023-06-19T03:20:10;26.10;34.70
28087;DHT22;15392;48.912;8.380;2023-06-19T03:22:39;26.10;34.70
28087;DHT22;15392;48.912;8.380;2023-06-19T03:25:06;26.10;35.00
28087;DHT22;15392;48.912;8.380;2023-06-19T03:27:33;26.20;34.60
28087;DHT22;15392;48.912;8.380;2023-06-19T03:29:58;26.20;34.90
28087;DHT22;15392;48.912;8.380;2023-06-19T03:32:24;26.20;35.50
28087;DHT22;15392;48.912;8.380;2023-06-19T03:34:50;26.20;34.70
28087;DHT22;15392;48.912;8.380;2023-06-19T03:37:16;26.20;35.20
28087;DHT22;15392;48.912;8.380;2023-06-19T03:39:42;26.20;34.60
28087;DHT22;15392;48.912;8.380;2023-06-19T03:42:08;26.20;34.70
28087;DHT22;15392;48.912;8.380;2023-06-19T03:44:34;26.20;34.50
28087;DHT22;15392;48.912;8.380;2023-06-19T03:46:59;26.20;34.50
28087;DHT22;15392;48.912;8.380;2023-06-19T03:49:25;26.20;34.60
28087;DHT22;15392;48.912;8.380;2023-06-19T03:51:52;26.30;34.70
28087;DHT22;15392;48.912;8.380;2023-06-19T03:54:20;26.30;34.70
28087;DHT22;15392;48.912;8.380;2023-06-19T03:56:45;26.30;34.60
28087;DHT22;15392;48.912;8.380;2023-06-19T03:59:11;26.30;34.50
28087;DHT22;15392;48.912;8.380;2023-06-19T04:01:37;26.40;34.70
28087;DHT22;15392;48.912;8.380;2023-06-19T04:04:03;26.30;34.70
28087;DHT22;15392;48.912;8.380;2023-06-19T04:06:28;26.30;34.60
28087;DHT22;15392;48.912;8.380;2023-06-19T04:08:54;26.40;34.70
28087;DHT22;15392;48.912;8.380;2023-06-19T04:11:20;26.40;34.70
28087;DHT22;15392;48.912;8.380;2023-06-19T04:13:46;26.40;34.60
28087;DHT22;15392;48.912;8.380;2023-06-19T04:16:12;26.40;34.80
28087;DHT22;15392;48.912;8.380;2023-06-19T04:18:38;26.40;34.90
28087;DHT22;15392;48.912;8.380;2023-06-19T04:21:04;26.40;34.90
28087;DHT22;15392;48.912;8.380;2023-06-19T04:23:30;26.50;34.90
28087;DHT22;15392;48.912;8.380;2023-06-19T04:25:55;26.40;34.80
28087;DHT22;15392;48.912;8.380;2023-06-19T04:28:21;26.50;35.00
28087;DHT22;15392;48.912;8.380;2023-06-19T04:30:47;26.40;34.90
28087;DHT22;15392;48.912;8.380;2023-06-19T04:33:12;26.50;35.00
28087;DHT22;15392;48.912;8.380;2023-06-19T04:35:38;26.50;35.10
28087;DHT22;15392;48.912;8.380;2023-06-19T04:38:08;26.40;35.00
28087;DHT22;15392;48.912;8.380;2023-06-19T04:40:34;26.40;35.30
28087;DHT22;15392;48.912;8.380;2023-06-19T04:43:03;26.40;35.20
28087;DHT22;15392;48.912;8.380;2023-06-19T04:45:31;26.40;35.60
28087;DHT22;15392;48.912;8.380;2023-06-19T04:47:57;26.30;35.20
28087;DHT22;15392;48.912;8.380;2023-06-19T04:50:22;26.30;35.20
28087;DHT22;15392;48.912;8.380;2023-06-19T04:52:48;26.30;35.40
28087;DHT22;15392;48.912;8.380;2023-06-19T04:55:16;26.20;35.50
28087;DHT22;15392;48.912;8.380;2023-06-19T04:57:41;26.30;35.50
28087;DHT22;15392;48.912;8.380;2023-06-19T05:00:09;26.20;35.80
28087;DHT22;15392;48.912;8.380;2023-06-19T05:02:40;26.20;35.80
28087;DHT22;15392;48.912;8.380;2023-06-19T05:05:09;26.20;35.60
28087;DHT22;15392;48.912;8.380;2023-06-19T05:07:34;26.20;35.70
28087;DHT22;15392;48.912;8.380;2023-06-19T05:10:00;26.20;35.70
28087;DHT22;15392;48.912;8.380;2023-06-19T05:12:26;26.20;35.60
28087;DHT22;15392;48.912;8.380;2023-06-19T05:14:52;26.20;35.70
28087;DHT22;15392;48.912;8.380;2023-06-19T05:17:17;26.20;35.80
28087;DHT22;15392;48.912;8.380;2023-06-19T05:19:43;26.20;36.00
28087;DHT22;15392;48.912;8.380;2023-06-19T05:22:09;26.20;36.00
28087;DHT22;15392;48.912;8.380;2023-06-19T05:24:34;26.20;36.00
28087;DHT22;15392;48.912;8.380;2023-06-19T05:27:00;26.20;36.10
28087;DHT22;15392;48.912;8.380;2023-06-19T05:29:26;26.20;36.20
28087;DHT22;15392;48.912;8.380;2023-06-19T05:31:52;26.20;36.40
28087;DHT22;15392;48.912;8.380;2023-06-19T05:34:17;26.30;36.30
28087;DHT22;15392;48.912;8.380;2023-06-19T05:36:43;26.30;36.20
28087;DHT22;15392;48.912;8.380;2023-06-19T05:39:12;26.30;36.30
28087;DHT22;15392;48.912;8.380;2023-06-19T05:41:38;26.40;36.40
28087;DHT22;15392;48.912;8.380;2023-06-19T05:44:04;26.40;36.40
28087;DHT22;15392;48.912;8.380;2023-06-19T05:46:30;26.40;36.50
28087;DHT22;15392;48.912;8.380;2023-06-19T05:48:56;26.40;36.90
28087;DHT22;15392;48.912;8.380;2023-06-19T05:51:21;26.50;36.50
28087;DHT22;15392;48.912;8.380;2023-06-19T05:53:47;26.50;36.60
28087;DHT22;15392;48.912;8.380;2023-06-19T05:56:15;26.50;36.40
28087;DHT22;15392;48.912;8.380;2023-06-19T05:58:41;26.60;36.60
28087;DHT22;15392;48.912;8.380;2023-06-19T06:01:07;26.60;36.60
28087;DHT22;15392;48.912;8.380;2023-06-19T06:03:33;26.60;36.90
28087;DHT22;15392;48.912;8.380;2023-06-19T06:05:58;26.60;36.60
28087;DHT22;15392;48.912;8.380;2023-06-19T06:08:31;26.70;36.90
28087;DHT22;15392;48.912;8.380;2023-06-19T06:10:57;26.70;37.20
28087;DHT22;15392;48.912;8.380;2023-06-19T06:13:23;26.70;36.80
28087;DHT22;15392;48.912;8.380;2023-06-19T06:15:50;26.80;37.00
28087;DHT22;15392;48.912;8.380;2023-06-19T06:18:16;26.90;37.20
28087;DHT22;15392;48.912;8.380;2023-06-19T06:20:42;26.90;37.00
28087;DHT22;15392;48.912;8.380;2023-06-19T06:23:07;27.00;37.20
28087;DHT22;15392;48.912;8.380;2023-06-19T06:25:33;27.10;37.20
28087;DHT22;15392;48.912;8.380;2023-06-19T06:27:59;27.20;37.30
28087;DHT22;15392;48.912;8.380;2023-06-19T06:30:25;27.30;37.10
28087;DHT22;15392;48.912;8.380;2023-06-19T06:32:52;27.40;37.60
28087;DHT22;15392;48.912;8.380;2023-06-19T06:35:18;27.50;37.90
28087;DHT22;15392;48.912;8.380;2023-06-19T06:37:44;27.50;36.90
28087;DHT22;15392;48.912;8.380;2023-06-19T06:40:14;27.70;36.80
28087;DHT22;15392;48.912;8.380;2023-06-19T06:42:40;27.70;37.00
28087;DHT22;15392;48.912;8.380;2023-06-19T06:45:06;27.80;36.70
28087;DHT22;15392;48.912;8.380;2023-06-19T06:47:34;27.90;36.70
28087;DHT22;15392;48.912;8.380;2023-06-19T06:50:00;27.90;36.90
28087;DHT22;15392;48.912;8.380;2023-06-19T06:52:26;28.00;36.70
28087;DHT22;15392;48.912;8.380;2023-06-19T06:54:56;28.10;36.70
28087;DHT22;15392;48.912;8.380;2023-06-19T06:57:22;28.20;36.60
28087;DHT22;15392;48.912;8.380;2023-06-19T06:59:48;28.30;36.40
28087;DHT22;15392;48.912;8.380;2023-06-19T07:02:13;28.40;36.70
28087;DHT22;15392;48.912;8.380;2023-06-19T07:04:39;28.50;36.10
28087;DHT22;15392;48.912;8.380;2023-06-19T07:07:05;28.50;36.00
28087;DHT22;15392;48.912;8.380;2023-06-19T07:09:31;28.60;36.40
28087;DHT22;15392;48.912;8.380;2023-06-19T07:11:57;28.70;36.20
28087;DHT22;15392;48.912;8.380;2023-06-19T07:14:22;28.80;36.10
28087;DHT22;15392;48.912;8.380;2023-06-19T07:16:49;28.80;35.70
28087;DHT22;15392;48.912;8.380;2023-06-19T07:19:15;28.90;35.80
28087;DHT22;15392;48.912;8.380;2023-06-19T07:21:41;29.00;35.50
28087;DHT22;15392;48.912;8.380;2023-06-19T07:24:08;29.00;35.70
28087;DHT22;15392;48.912;8.380;2023-06-19T07:26:33;29.10;35.40
28087;DHT22;15392;48.912;8.380;2023-06-19T07:28:59;29.10;35.20
28087;DHT22;15392;48.912;8.380;2023-06-19T07:31:25;29.20;35.10
28087;DHT22;15392;48.912;8.380;2023-06-19T07:33:50;29.20;35.10
28087;DHT22;15392;48.912;8.380;2023-06-19T07:36:16;29.30;35.70
28087;DHT22;15392;48.912;8.380;2023-06-19T07:38:42;29.30;35.10
28087;DHT22;15392;48.912;8.380;2023-06-19T07:41:09;29.30;35.10
28087;DHT22;15392;48.912;8.380;2023-06-19T07:43:37;29.30;35.40
28087;DHT22;15392;48.912;8.380;2023-06-19T07:46:03;29.30;35.20
28087;DHT22;15392;48.912;8.380;2023-06-19T07:48:30;29.40;35.30
28087;DHT22;15392;48.912;8.380;2023-06-19T07:50:56;29.40;35.30
28087;DHT22;15392;48.912;8.380;2023-06-19T07:53:24;29.50;35.10
28087;DHT22;15392;48.912;8.380;2023-06-19T07:55:50;29.50;35.30
28087;DHT22;15392;48.912;8.380;2023-06-19T07:58:16;29.60;35.40
28087;DHT22;15392;48.912;8.380;2023-06-19T08:00:42;29.60;35.30
28087;DHT22;15392;48.912;8.380;2023-06-19T08:03:08;29.70;35.50
28087;DHT22;15392;48.912;8.380;2023-06-19T08:05:33;29.90;35.60
28087;DHT22;15392;48.912;8.380;2023-06-19T08:07:59;30.00;35.70
28087;DHT22;15392;48.912;8.380;2023-06-19T08:10:25;30.10;35.40
28087;DHT22;15392;48.912;8.380;2023-06-19T08:12:51;30.30;35.10
28087;DHT22;15392;48.912;8.380;2023-06-19T08:15:17;30.30;35.00
28087;DHT22;15392;48.912;8.380;2023-06-19T08:17:43;30.40;35.00
28087;DHT22;15392;48.912;8.380;2023-06-19T08:20:09;30.60;35.10
28087;DHT22;15392;48.912;8.380;2023-06-19T08:22:35;30.60;34.80
28087;DHT22;15392;48.912;8.380;2023-06-19T08:25:01;30.70;34.90
28087;DHT22;15392;48.912;8.380;2023-06-19T08:27:28;30.80;35.00
28087;DHT22;15392;48.912;8.380;2023-06-19T08:29:55;30.90;34.90
28087;DHT22;15392;48.912;8.380;2023-06-19T08:32:20;30.90;34.90
28087;DHT22;15392;48.912;8.380;2023-06-19T08:34:46;31.00;35.00
28087;DHT22;15392;48.912;8.380;2023-06-19T08:37:12;31.10;34.90
28087;DHT22;15392;48.912;8.380;2023-06-19T08:39:38;31.20;35.20
28087;DHT22;15392;48.912;8.380;2023-06-19T08:42:08;31.30;34.80
28087;DHT22;15392;48.912;8.380;2023-06-19T08:44:35;31.30;34.80
28087;DHT22;15392;48.912;8.380;2023-06-19T08:47:05;31.40;34.60
28087;DHT22;15392;48.912;8.380;2023-06-19T08:49:35;31.60;35.00
28087;DHT22;15392;48.912;8.380;2023-06-19T08:52:02;31.60;34.60
28087;DHT22;15392;48.912;8.380;2023-06-19T08:54:29;31.70;34.70
28087;DHT22;15392;48.912;8.380;2023-06-19T08:56:55;31.80;34.80
28087;DHT22;15392;48.912;8.380;2023-06-19T08:59:21;31.90;34.50
28087;DHT22;15392;48.912;8.380;2023-06-19T09:01:49;32.00;34.70
28087;DHT22;15392;48.912;8.380;2023-06-19T09:04:23;32.10;34.50
28087;DHT22;15392;48.912;8.380;2023-06-19T09:06:56;32.30;34.50
28087;DHT22;15392;48.912;8.380;2023-06-19T09:09:26;32.30;35.10
28087;DHT22;15392;48.912;8.380;2023-06-19T09:14:36;32.60;34.70
28087;DHT22;15392;48.912;8.380;2023-06-19T09:17:10;32.70;34.50
28087;DHT22;15392;48.912;8.380;2023-06-19T09:19:46;32.70;34.00
28087;DHT22;15392;48.912;8.380;2023-06-19T09:22:17;32.70;33.90
28087;DHT22;15392;48.912;8.380;2023-06-19T09:24:47;32.80;33.90
28087;DHT22;15392;48.912;8.380;2023-06-19T09:27:18;32.70;34.00
28087;DHT22;15392;48.912;8.380;2023-06-19T09:29:46;32.80;34.00
28087;DHT22;15392;48.912;8.380;2023-06-19T09:34:50;32.90;34.10
28087;DHT22;15392;48.912;8.380;2023-06-19T09:37:27;32.90;33.90
28087;DHT22;15392;48.912;8.380;2023-06-19T09:40:05;33.00;34.20
28087;DHT22;15392;48.912;8.380;2023-06-19T09:42:41;33.00;34.10
28087;DHT22;15392;48.912;8.380;2023-06-19T09:45:12;33.10;33.80
28087;DHT22;15392;48.912;8.380;2023-06-19T09:47:43;33.20;33.70
28087;DHT22;15392;48.912;8.380;2023-06-19T09:50:15;33.30;33.70
28087;DHT22;15392;48.912;8.380;2023-06-19T09:52:43;33.30;33.70
28087;DHT22;15392;48.912;8.380;2023-06-19T09:55:11;33.40;33.40
28087;DHT22;15392;48.912;8.380;2023-06-19T09:57:39;33.40;33.50
28087;DHT22;15392;48.912;8.380;2023-06-19T10:00:08;33.50;33.50
28087;DHT22;15392;48.912;8.380;2023-06-19T10:02:46;33.50;33.40
28087;DHT22;15392;48.912;8.380;2023-06-19T10:05:13;33.50;33.10
28087;DHT22;15392;48.912;8.380;2023-06-19T10:07:42;33.50;33.10
28087;DHT22;15392;48.912;8.380;2023-06-19T10:10:22;33.40;33.10
28087;DHT22;15392;48.912;8.380;2023-06-19T10:12:50;33.50;33.30
28087;DHT22;15392;48.912;8.380;2023-06-19T10:15:17;33.40;33.10
28087;DHT22;15392;48.912;8.380;2023-06-19T10:18:00;33.40;33.10
28087;DHT22;15392;48.912;8.380;2023-06-19T10:20:33;33.40;33.30
28087;DHT22;15392;48.912;8.380;2023-06-19T10:23:20;33.40;33.20
28087;DHT22;15392;48.912;8.380;2023-06-19T10:28:30;33.50;33.50
28087;DHT22;15392;48.912;8.380;2023-06-19T10:31:06;33.60;33.50
28087;DHT22;15392;48.912;8.380;2023-06-19T10:33:37;33.60;33.30
28087;DHT22;15392;48.912;8.380;2023-06-19T10:36:19;33.60;33.30
28087;DHT22;15392;48.912;8.380;2023-06-19T10:38:48;33.70;33.40
28087;DHT22;15392;48.912;8.380;2023-06-19T10:41:19;33.70;33.10
28087;DHT22;15392;48.912;8.380;2023-06-19T10:46:32;33.80;33.80
28087;DHT22;15392;48.912;8.380;2023-06-19T10:49:02;33.80;33.10
28087;DHT22;15392;48.912;8.380;2023-06-19T10:51:40;33.90;33.10
28087;DHT22;15392;48.912;8.380;2023-06-19T10:54:10;33.90;33.40
28087;DHT22;15392;48.912;8.380;2023-06-19T10:56:36;33.90;33.10
28087;DHT22;15392;48.912;8.380;2023-06-19T10:59:09;33.90;33.20
28087;DHT22;15392;48.912;8.380;2023-06-19T11:01:42;34.00;33.30
28087;DHT22;15392;48.912;8.380;2023-06-19T11:04:13;34.00;33.20
28087;DHT22;15392;48.912;8.380;2023-06-19T11:06:41;34.10;32.90
28087;DHT22;15392;48.912;8.380;2023-06-19T11:09:10;34.10;32.90
28087;DHT22;15392;48.912;8.380;2023-06-19T11:11:47;34.10;32.70
28087;DHT22;15392;48.912;8.380;2023-06-19T11:14:15;34.10;33.10
28087;DHT22;15392;48.912;8.380;2023-06-19T11:16:43;34.20;32.80
28087;DHT22;15392;48.912;8.380;2023-06-19T11:19:22;34.20;32.60
28087;DHT22;15392;48.912;8.380;2023-06-19T11:21:51;34.20;32.90
28087;DHT22;15392;48.912;8.380;2023-06-19T11:24:18;34.20;32.80
28087;DHT22;15392;48.912;8.380;2023-06-19T11:26:47;34.20;32.80
28087;DHT22;15392;48.912;8.380;2023-06-19T11:32:33;34.30;32.80
28087;DHT22;15392;48.912;8.380;2023-06-19T11:35:10;34.30;33.00
28087;DHT22;15392;48.912;8.380;2023-06-19T11:37:40;34.30;32.80
28087;DHT22;15392;48.912;8.380;2023-06-19T11:40:07;34.30;32.90
28087;DHT22;15392;48.912;8.380;2023-06-19T11:42:47;34.30;32.70
28087;DHT22;15392;48.912;8.380;2023-06-19T11:45:14;34.30;32.60
28087;DHT22;15392;48.912;8.380;2023-06-19T11:47:40;34.30;32.50
28087;DHT22;15392;48.912;8.380;2023-06-19T11:50:07;34.20;32.30
28087;DHT22;15392;48.912;8.380;2023-06-19T11:52:33;34.20;32.40
28087;DHT22;15392;48.912;8.380;2023-06-19T11:54:59;34.10;32.50
28087;DHT22;15392;48.912;8.380;2023-06-19T11:57:26;34.10;33.30
28087;DHT22;15392;48.912;8.380;2023-06-19T11:59:52;34.10;32.90
28087;DHT22;15392;48.912;8.380;2023-06-19T12:02:18;34.10;32.70
28087;DHT22;15392;48.912;8.380;2023-06-19T12:04:44;34.20;32.90
28087;DHT22;15392;48.912;8.380;2023-06-19T12:07:10;34.20;32.70
28087;DHT22;15392;48.912;8.380;2023-06-19T12:09:37;34.30;32.80
28087;DHT22;15392;48.912;8.380;2023-06-19T12:12:05;34.40;32.80
28087;DHT22;15392;48.912;8.380;2023-06-19T12:14:31;34.50;33.30
28087;DHT22;15392;48.912;8.380;2023-06-19T12:16:58;34.50;32.70
28087;DHT22;15392;48.912;8.380;2023-06-19T12:19:25;34.60;32.60
28087;DHT22;15392;48.912;8.380;2023-06-19T12:21:53;34.60;32.60
28087;DHT22;15392;48.912;8.380;2023-06-19T12:24:19;34.70;32.70
28087;DHT22;15392;48.912;8.380;2023-06-19T12:26:45;34.80;32.50
28087;DHT22;15392;48.912;8.380;2023-06-19T12:29:11;34.90;32.40
28087;DHT22;15392;48.912;8.380;2023-06-19T12:31:37;34.90;32.50
28087;DHT22;15392;48.912;8.380;2023-06-19T12:34:04;35.00;32.50
28087;DHT22;15392;48.912;8.380;2023-06-19T12:36:32;35.00;32.60
28087;DHT22;15392;48.912;8.380;2023-06-19T12:38:59;35.10;32.40
28087;DHT22;15392;48.912;8.380;2023-06-19T12:41:26;35.20;32.50
28087;DHT22;15392;48.912;8.380;2023-06-19T12:43:51;35.30;32.40
28087;DHT22;15392;48.912;8.380;2023-06-19T12:46:17;35.30;32.20
28087;DHT22;15392;48.912;8.380;2023-06-19T12:48:43;35.40;32.20
28087;DHT22;15392;48.912;8.380;2023-06-19T12:51:09;35.50;32.00
28087;DHT22;15392;48.912;8.380;2023-06-19T12:53:34;35.50;31.90
28087;DHT22;15392;48.912;8.380;2023-06-19T12:56:00;35.60;32.70
28087;DHT22;15392;48.912;8.380;2023-06-19T12:58:26;35.50;32.00
28087;DHT22;15392;48.912;8.380;2023-06-19T13:00:53;35.60;32.00
28087;DHT22;15392;48.912;8.380;2023-06-19T13:03:19;35.60;32.00
28087;DHT22;15392;48.912;8.380;2023-06-19T13:05:48;35.60;32.00
28087;DHT22;15392;48.912;8.380;2023-06-19T13:08:15;35.60;32.00
28087;DHT22;15392;48.912;8.380;2023-06-19T13:10:41;35.60;32.00
28087;DHT22;15392;48.912;8.380;2023-06-19T13:13:07;35.70;32.00
28087;DHT22;15392;48.912;8.380;2023-06-19T13:15:33;35.80;32.00
28087;DHT22;15392;48.912;8.380;2023-06-19T13:17:59;35.80;32.00
28087;DHT22;15392;48.912;8.380;2023-06-19T13:20:25;35.90;31.90
28087;DHT22;15392;48.912;8.380;2023-06-19T13:22:51;35.90;31.80
28087;DHT22;15392;48.912;8.380;2023-06-19T13:25:18;36.00;31.90
28087;DHT22;15392;48.912;8.380;2023-06-19T13:27:44;36.00;31.50
28087;DHT22;15392;48.912;8.380;2023-06-19T13:30:11;36.00;31.50
28087;DHT22;15392;48.912;8.380;2023-06-19T13:32:37;36.00;31.60
28087;DHT22;15392;48.912;8.380;2023-06-19T13:35:05;36.00;31.60
28087;DHT22;15392;48.912;8.380;2023-06-19T13:37:34;36.00;31.40
28087;DHT22;15392;48.912;8.380;2023-06-19T13:40:01;35.90;31.40
28087;DHT22;15392;48.912;8.380;2023-06-19T13:42:29;35.90;31.40
28087;DHT22;15392;48.912;8.380;2023-06-19T13:44:56;35.90;31.40
28087;DHT22;15392;48.912;8.380;2023-06-19T13:47:22;35.90;31.50
28087;DHT22;15392;48.912;8.380;2023-06-19T13:49:51;35.90;31.30
28087;DHT22;15392;48.912;8.380;2023-06-19T13:52:17;35.90;31.50
28087;DHT22;15392;48.912;8.380;2023-06-19T13:54:43;35.90;31.40
28087;DHT22;15392;48.912;8.380;2023-06-19T13:57:09;35.80;31.30
28087;DHT22;15392;48.912;8.380;2023-06-19T13:59:34;35.80;31.20
28087;DHT22;15392;48.912;8.380;2023-06-19T14:02:00;35.80;31.40
28087;DHT22;15392;48.912;8.380;2023-06-19T14:04:26;35.80;31.50
28087;DHT22;15392;48.912;8.380;2023-06-19T14:06:52;35.70;31.50
28087;DHT22;15392;48.912;8.380;2023-06-19T14:09:20;35.70;31.20
28087;DHT22;15392;48.912;8.380;2023-06-19T14:11:46;35.70;31.20
28087;DHT22;15392;48.912;8.380;2023-06-19T14:14:12;35.70;31.20
28087;DHT22;15392;48.912;8.380;2023-06-19T14:16:38;35.70;31.30
28087;DHT22;15392;48.912;8.380;2023-06-19T14:19:04;35.60;31.20
28087;DHT22;15392;48.912;8.380;2023-06-19T14:21:29;35.50;31.40
28087;DHT22;15392;48.912;8.380;2023-06-19T14:23:55;35.60;31.40
28087;DHT22;15392;48.912;8.380;2023-06-19T14:26:21;35.50;31.40
28087;DHT22;15392;48.912;8.380;2023-06-19T14:28:47;35.50;31.20
28087;DHT22;15392;48.912;8.380;2023-06-19T14:31:13;35.50;31.20
28087;DHT22;15392;48.912;8.380;2023-06-19T14:33:39;35.50;31.10
28087;DHT22;15392;48.912;8.380;2023-06-19T14:36:05;35.40;31.00
28087;DHT22;15392;48.912;8.380;2023-06-19T14:38:31;35.40;31.10
28087;DHT22;15392;48.912;8.380;2023-06-19T14:41:02;35.30;31.20
28087;DHT22;15392;48.912;8.380;2023-06-19T14:43:30;35.20;31.30
28087;DHT22;15392;48.912;8.380;2023-06-19T14:45:58;35.20;31.20
28087;DHT22;15392;48.912;8.380;2023-06-19T14:48:26;35.20;31.20
28087;DHT22;15392;48.912;8.380;2023-06-19T14:50:52;35.10;31.30
28087;DHT22;15392;48.912;8.380;2023-06-19T14:53:17;35.10;31.50
28087;DHT22;15392;48.912;8.380;2023-06-19T14:55:43;35.10;31.60
28087;DHT22;15392;48.912;8.380;2023-06-19T14:58:12;35.10;31.50
28087;DHT22;15392;48.912;8.380;2023-06-19T15:00:39;35.10;31.40
28087;DHT22;15392;48.912;8.380;2023-06-19T15:03:06;35.10;31.40
28087;DHT22;15392;48.912;8.380;2023-06-19T15:05:32;35.10;31.40
28087;DHT22;15392;48.912;8.380;2023-06-19T15:07:58;35.10;31.30
28087;DHT22;15392;48.912;8.380;2023-06-19T15:10:26;35.10;31.40
28087;DHT22;15392;48.912;8.380;2023-06-19T15:12:52;35.10;31.30
28087;DHT22;15392;48.912;8.380;2023-06-19T15:15:18;35.10;31.20
28087;DHT22;15392;48.912;8.380;2023-06-19T15:17:44;35.10;31.50
28087;DHT22;15392;48.912;8.380;2023-06-19T15:20:10;35.10;31.40
28087;DHT22;15392;48.912;8.380;2023-06-19T15:22:36;35.10;31.30
28087;DHT22;15392;48.912;8.380;2023-06-19T15:25:04;35.00;31.40
28087;DHT22;15392;48.912;8.380;2023-06-19T15:27:31;35.00;32.10
28087;DHT22;15392;48.912;8.380;2023-06-19T15:29:57;35.00;31.50
28087;DHT22;15392;48.912;8.380;2023-06-19T15:32:25;35.00;31.60
28087;DHT22;15392;48.912;8.380;2023-06-19T15:34:51;35.00;31.70
28087;DHT22;15392;48.912;8.380;2023-06-19T15:37:16;34.90;31.60
28087;DHT22;15392;48.912;8.380;2023-06-19T15:39:42;35.00;31.70
28087;DHT22;15392;48.912;8.380;2023-06-19T15:42:08;34.90;31.60
28087;DHT22;15392;48.912;8.380;2023-06-19T15:44:35;34.90;31.70